createdAt,value
2022-08-27T00:00:37.163Z,4.55
2022-08-27T00:01:39.739Z,4.78
2022-08-27T00:02:43.210Z,5.53
2022-08-27T00:03:46.106Z,5.03
2022-08-27T00:04:48.065Z,4.50
2022-08-27T00:05:49.985Z,4.32
2022-08-27T00:06:51.896Z,4.50
2022-08-27T00:07:55.694Z,4.20
2022-08-27T00:08:58.501Z,4.35
2022-08-27T00:10:00.305Z,3.90
2022-08-27T00:11:02.379Z,4.45
2022-08-27T00:12:05.780Z,4.32
2022-08-27T00:13:07.769Z,4.47
2022-08-27T00:14:09.545Z,4.18
2022-08-27T00:15:12.465Z,4.30
2022-08-27T00:16:20.855Z,4.47
2022-08-27T00:17:22.700Z,3.78
2022-08-27T00:18:24.556Z,4.65
2022-08-27T00:19:26.488Z,4.28
2022-08-27T00:20:28.614Z,4.30
2022-08-27T00:21:30.690Z,4.70
2022-08-27T00:22:32.589Z,4.25
2022-08-27T00:23:36.296Z,4.47
2022-08-27T00:24:48.708Z,3.90
2022-08-27T00:25:50.970Z,4.13
2022-08-27T00:26:54.005Z,4.40
2022-08-27T00:27:55.803Z,4.72
2022-08-27T00:28:57.791Z,4.30
2022-08-27T00:30:00.258Z,3.97
2022-08-27T00:31:02.591Z,4.20
2022-08-27T00:32:04.619Z,4.10
2022-08-27T00:33:06.438Z,4.20
2022-08-27T00:34:08.502Z,3.80
2022-08-27T00:35:16.291Z,4.20
2022-08-27T00:36:18.355Z,3.67
2022-08-27T00:37:20.517Z,4.10
2022-08-27T00:38:23.544Z,4.65
2022-08-27T00:39:25.352Z,4.28
2022-08-27T00:40:27.662Z,4.07
2022-08-27T00:41:29.471Z,4.40
2022-08-27T00:42:31.281Z,4.88
2022-08-27T00:43:57.592Z,4.22
2022-08-27T00:44:59.917Z,4.50
2022-08-27T00:46:10.655Z,4.35
2022-08-27T00:47:17.052Z,4.88
2022-08-27T00:48:21.926Z,4.63
2022-08-27T00:49:46.017Z,4.55
2022-08-27T00:50:52.695Z,4.60
2022-08-27T00:52:06.468Z,4.53
2022-08-27T00:53:12.578Z,4.80
2022-08-27T00:54:18.686Z,4.85
2022-08-27T00:55:28.747Z,4.70
2022-08-27T00:56:36.066Z,4.85
2022-08-27T00:57:40.869Z,4.90
2022-08-27T00:58:46.128Z,4.55
2022-08-27T00:59:48.596Z,4.55
2022-08-27T01:00:50.662Z,5.30
2022-08-27T01:02:11.171Z,4.97
2022-08-27T01:03:14.084Z,4.93
2022-08-27T01:04:16.081Z,5.07
2022-08-27T01:05:22.214Z,4.78
2022-08-27T01:06:29.745Z,5.13
2022-08-27T01:07:36.498Z,4.72
2022-08-27T01:08:42.560Z,5.65
2022-08-27T01:09:46.766Z,4.78
2022-08-27T01:10:54.064Z,5.13
2022-08-27T01:11:58.178Z,5.22
2022-08-27T01:13:00.560Z,4.95
2022-08-27T01:14:04.998Z,5.15
2022-08-27T01:15:12.045Z,4.78
2022-08-27T01:16:21.007Z,5.38
2022-08-27T01:17:25.212Z,4.90
2022-08-27T01:18:28.936Z,4.88
2022-08-27T01:19:36.285Z,4.60
2022-08-27T01:20:51.748Z,5.68
2022-08-27T01:22:21.729Z,4.20
2022-08-27T01:23:48.728Z,4.82
2022-08-27T01:24:52.999Z,4.47
2022-08-27T01:25:55.141Z,4.47
2022-08-27T01:26:59.259Z,3.92
2022-08-27T01:28:03.486Z,4.55
2022-08-27T01:29:05.542Z,4.20
2022-08-27T01:30:10.297Z,4.35
2022-08-27T01:31:13.522Z,4.45
2022-08-27T01:32:24.354Z,4.25
2022-08-27T01:33:26.164Z,3.90
2022-08-27T01:34:28.015Z,3.83
2022-08-27T01:35:29.972Z,3.75
2022-08-27T01:36:32.954Z,4.03
2022-08-27T01:37:35.402Z,4.57
2022-08-27T01:38:37.164Z,4.13
2022-08-27T01:39:40.790Z,4.15
2022-08-27T01:40:42.849Z,4.30
2022-08-27T01:41:46.971Z,3.78
2022-08-27T01:42:56.853Z,4.65
2022-08-27T01:43:58.658Z,4.35
2022-08-27T01:45:10.995Z,4.53
2022-08-27T01:46:13.041Z,4.30
2022-08-27T01:47:16.031Z,4.35
2022-08-27T01:48:22.034Z,4.00
2022-08-27T01:49:23.805Z,5.05
2022-08-27T01:50:32.166Z,4.75
2022-08-27T01:51:34.758Z,4.82
2022-08-27T01:52:37.154Z,4.75
2022-08-27T01:53:38.948Z,4.28
2022-08-27T01:54:40.984Z,4.55
2022-08-27T01:55:48.139Z,4.13
2022-08-27T01:56:50.291Z,4.90
2022-08-27T01:57:53.423Z,4.28
2022-08-27T01:58:55.220Z,4.28
2022-08-27T01:59:58.241Z,4.20
2022-08-27T02:01:10.609Z,4.38
2022-08-27T02:02:16.767Z,4.50
2022-08-27T02:03:19.341Z,4.38
2022-08-27T02:04:21.764Z,4.28
2022-08-27T02:05:26.285Z,4.47
2022-08-27T02:06:28.079Z,4.70
2022-08-27T02:07:29.858Z,4.88
2022-08-27T02:08:32.384Z,4.25
2022-08-27T02:09:34.221Z,5.70
2022-08-27T02:10:38.854Z,4.35
2022-08-27T02:11:45.092Z,4.20
2022-08-27T02:12:47.248Z,4.63
2022-08-27T02:13:49.381Z,4.72
2022-08-27T02:14:52.045Z,4.80
2022-08-27T02:15:54.341Z,4.13
2022-08-27T02:16:56.644Z,4.53
2022-08-27T02:17:58.498Z,4.45
2022-08-27T02:19:00.567Z,6.05
2022-08-27T02:20:02.685Z,4.40
2022-08-27T02:21:05.317Z,4.57
2022-08-27T02:22:07.344Z,4.43
2022-08-27T02:23:09.324Z,4.80
2022-08-27T02:24:11.342Z,4.72
2022-08-27T02:25:14.156Z,4.93
2022-08-27T02:26:15.999Z,4.68
2022-08-27T02:27:18.603Z,4.53
2022-08-27T02:28:20.530Z,4.80
2022-08-27T02:29:23.413Z,4.55
2022-08-27T02:30:25.447Z,4.68
2022-08-27T02:31:27.394Z,4.88
2022-08-27T02:32:31.791Z,4.35
2022-08-27T02:33:34.190Z,4.80
2022-08-27T02:34:35.982Z,4.70
2022-08-27T02:35:44.066Z,4.10
2022-08-27T02:36:46.480Z,4.72
2022-08-27T02:37:48.976Z,4.50
2022-08-27T02:38:51.367Z,5.20
2022-08-27T02:39:53.417Z,5.85
2022-08-27T02:40:55.407Z,4.90
2022-08-27T02:41:57.202Z,4.47
2022-08-27T02:42:59.046Z,5.22
2022-08-27T02:44:01.514Z,5.10
2022-08-27T02:45:03.462Z,5.88
2022-08-27T02:46:05.509Z,5.80
2022-08-27T02:47:07.378Z,5.38
2022-08-27T02:48:09.358Z,5.35
2022-08-27T02:49:11.343Z,5.45
2022-08-27T02:50:14.845Z,5.03
2022-08-27T02:51:16.684Z,6.13
2022-08-27T02:52:25.030Z,5.60
2022-08-27T02:53:27.405Z,5.50
2022-08-27T02:54:30.294Z,5.90
2022-08-27T02:55:33.412Z,4.82
2022-08-27T02:56:35.575Z,5.20
2022-08-27T02:57:37.434Z,5.63
2022-08-27T02:58:41.075Z,5.32
2022-08-27T02:59:42.881Z,5.32
2022-08-27T03:00:45.319Z,5.32
2022-08-27T03:01:47.800Z,5.60
2022-08-27T03:02:50.062Z,5.28
2022-08-27T03:03:52.695Z,5.85
2022-08-27T03:04:54.512Z,5.40
2022-08-27T03:05:58.325Z,5.50
2022-08-27T03:07:00.620Z,6.07
2022-08-27T03:08:03.781Z,5.50
2022-08-27T03:09:05.956Z,5.40
2022-08-27T03:10:10.058Z,5.10
2022-08-27T03:11:12.871Z,5.50
2022-08-27T03:12:16.183Z,5.13
2022-08-27T03:13:18.936Z,5.43
2022-08-27T03:14:20.834Z,5.03
2022-08-27T03:15:22.758Z,5.30
2022-08-27T03:16:24.973Z,5.32
2022-08-27T03:17:45.543Z,5.32
2022-08-27T03:18:47.390Z,5.25
2022-08-27T03:19:50.875Z,5.63
2022-08-27T03:20:55.910Z,4.90
2022-08-27T03:21:57.678Z,4.93
2022-08-27T03:23:00.663Z,5.07
2022-08-27T03:24:11.402Z,4.90
2022-08-27T03:25:14.060Z,5.45
2022-08-27T03:26:17.006Z,5.45
2022-08-27T03:27:18.802Z,5.15
2022-08-27T03:28:23.877Z,5.85
2022-08-27T03:29:25.765Z,5.18
2022-08-27T03:30:27.857Z,5.03
2022-08-27T03:31:29.683Z,5.93
2022-08-27T03:32:31.633Z,5.85
2022-08-27T03:33:40.585Z,5.32
2022-08-27T03:34:42.615Z,5.22
2022-08-27T03:35:45.689Z,5.28
2022-08-27T03:36:50.466Z,5.85
2022-08-27T03:37:52.304Z,5.72
2022-08-27T03:38:54.502Z,5.82
2022-08-27T03:39:56.329Z,5.35
2022-08-27T03:40:58.140Z,5.13
2022-08-27T03:41:59.921Z,5.68
2022-08-27T03:43:01.855Z,5.78
2022-08-27T03:44:04.419Z,5.95
2022-08-27T03:45:07.916Z,5.65
2022-08-27T03:46:10.443Z,4.93
2022-08-27T03:47:12.250Z,4.70
2022-08-27T03:48:14.904Z,5.28
2022-08-27T03:49:20.696Z,4.90
2022-08-27T03:50:23.230Z,5.30
2022-08-27T03:51:25.419Z,4.57
2022-08-27T03:52:28.820Z,4.63
2022-08-27T03:53:30.734Z,5.30
2022-08-27T03:54:36.263Z,4.93
2022-08-27T03:55:38.045Z,5.10
2022-08-27T03:56:41.770Z,4.88
2022-08-27T03:57:43.603Z,5.10
2022-08-27T03:58:45.402Z,5.25
2022-08-27T03:59:47.323Z,5.22
2022-08-27T04:00:49.165Z,5.25
2022-08-27T04:01:50.954Z,5.47
2022-08-27T04:02:53.641Z,5.32
2022-08-27T04:03:55.471Z,5.25
2022-08-27T04:04:58.019Z,5.40
2022-08-27T04:06:00.260Z,5.88
2022-08-27T04:07:02.158Z,6.20
2022-08-27T04:08:04.068Z,5.43
2022-08-27T04:09:06.067Z,5.90
2022-08-27T04:10:09.653Z,5.97
2022-08-27T04:11:11.924Z,5.50
2022-08-27T04:12:13.729Z,5.90
2022-08-27T04:13:16.323Z,6.25
2022-08-27T04:14:24.826Z,5.63
2022-08-27T04:15:30.100Z,5.43
2022-08-27T04:16:33.827Z,5.82
2022-08-27T04:17:35.783Z,5.80
2022-08-27T04:18:37.628Z,6.20
2022-08-27T04:19:39.427Z,6.07
2022-08-27T04:20:41.637Z,5.45
2022-08-27T04:21:43.731Z,6.25
2022-08-27T04:22:45.528Z,6.38
2022-08-27T04:23:47.328Z,6.93
2022-08-27T04:24:49.309Z,6.43
2022-08-27T04:25:51.099Z,5.75
2022-08-27T04:26:52.929Z,6.50
2022-08-27T04:27:54.712Z,5.55
2022-08-27T04:28:58.204Z,5.53
2022-08-27T04:30:01.082Z,6.18
2022-08-27T04:31:04.090Z,5.53
2022-08-27T04:32:06.004Z,5.28
2022-08-27T04:33:08.098Z,5.53
2022-08-27T04:34:09.937Z,5.70
2022-08-27T04:35:11.990Z,5.88
2022-08-27T04:36:14.647Z,5.55
2022-08-27T04:37:16.874Z,5.32
2022-08-27T04:38:25.223Z,5.50
2022-08-27T04:39:28.548Z,5.43
2022-08-27T04:40:50.470Z,5.30
2022-08-27T04:41:55.657Z,5.03
2022-08-27T04:42:57.630Z,5.75
2022-08-27T04:44:04.705Z,5.45
2022-08-27T04:45:07.079Z,5.45
2022-08-27T04:46:09.279Z,5.18
2022-08-27T04:47:11.128Z,5.50
2022-08-27T04:48:15.490Z,4.60
2022-08-27T04:49:17.718Z,4.97
2022-08-27T04:50:19.935Z,4.93
2022-08-27T04:51:22.263Z,4.68
2022-08-27T04:52:24.275Z,5.45
2022-08-27T04:53:26.314Z,4.97
2022-08-27T04:54:32.405Z,5.10
2022-08-27T04:55:40.552Z,4.65
2022-08-27T04:56:42.654Z,5.15
2022-08-27T04:57:44.456Z,5.38
2022-08-27T04:58:46.283Z,5.50
2022-08-27T04:59:48.291Z,5.25
2022-08-27T05:00:56.423Z,5.10
2022-08-27T05:01:58.648Z,5.25
2022-08-27T05:03:00.493Z,5.65
2022-08-27T05:04:02.685Z,5.05
2022-08-27T05:05:05.076Z,5.20
2022-08-27T05:06:07.450Z,5.43
2022-08-27T05:07:10.642Z,5.05
2022-08-27T05:08:13.307Z,4.72
2022-08-27T05:09:16.208Z,4.85
2022-08-27T05:10:20.059Z,4.72
2022-08-27T05:11:23.839Z,4.93
2022-08-27T05:12:25.732Z,4.88
2022-08-27T05:13:29.031Z,4.88
2022-08-27T05:14:32.581Z,4.75
2022-08-27T05:15:35.306Z,4.68
2022-08-27T05:16:38.163Z,4.57
2022-08-27T05:17:40.009Z,4.63
2022-08-27T05:18:48.039Z,4.47
2022-08-27T05:19:50.589Z,5.05
2022-08-27T05:20:52.399Z,4.90
2022-08-27T05:21:54.405Z,4.72
2022-08-27T05:22:56.929Z,4.95
2022-08-27T05:24:01.392Z,4.68
2022-08-27T05:25:03.278Z,4.32
2022-08-27T05:26:07.556Z,4.72
2022-08-27T05:27:09.973Z,4.50
2022-08-27T05:28:16.943Z,4.65
2022-08-27T05:29:18.956Z,4.78
2022-08-27T05:30:21.131Z,4.57
2022-08-27T05:31:23.044Z,4.75
2022-08-27T05:32:24.879Z,4.32
2022-08-27T05:33:26.752Z,4.60
2022-08-27T05:34:30.091Z,4.70
2022-08-27T05:35:32.965Z,4.38
2022-08-27T05:36:35.845Z,5.10
2022-08-27T05:37:37.996Z,4.70
2022-08-27T05:38:39.858Z,4.95
2022-08-27T05:39:41.643Z,4.28
2022-08-27T05:40:44.116Z,4.95
2022-08-27T05:41:45.912Z,4.80
2022-08-27T05:42:51.108Z,4.80
2022-08-27T05:43:57.541Z,4.40
2022-08-27T05:45:00.925Z,4.70
2022-08-27T05:46:07.713Z,5.63
2022-08-27T05:47:10.314Z,4.68
2022-08-27T05:48:12.958Z,4.90
2022-08-27T05:49:15.039Z,5.10
2022-08-27T05:50:20.730Z,4.72
2022-08-27T05:51:34.244Z,4.90
2022-08-27T05:52:36.683Z,4.85
2022-08-27T05:53:39.520Z,4.97
2022-08-27T05:54:41.348Z,5.45
2022-08-27T05:55:45.631Z,5.85
2022-08-27T05:56:51.700Z,4.82
2022-08-27T05:57:53.494Z,5.47
2022-08-27T05:59:14.528Z,5.20
2022-08-27T06:00:35.905Z,5.70
2022-08-27T06:01:45.086Z,5.55
2022-08-27T06:02:47.006Z,5.90
2022-08-27T06:03:48.827Z,5.28
2022-08-27T06:04:50.747Z,4.95
2022-08-27T06:06:01.803Z,4.85
2022-08-27T06:08:05.578Z,5.47
2022-08-27T06:09:08.799Z,5.15
2022-08-27T06:10:11.522Z,5.88
2022-08-27T06:11:13.556Z,4.90
2022-08-27T06:12:15.374Z,6.18
2022-08-27T06:13:17.211Z,7.05
2022-08-27T06:14:19.083Z,7.40
2022-08-27T06:15:20.932Z,6.97
2022-08-27T06:16:23.634Z,7.38
2022-08-27T06:17:25.449Z,7.05
2022-08-27T06:18:27.242Z,7.45
2022-08-27T06:19:29.302Z,7.00
2022-08-27T06:20:31.128Z,6.97
2022-08-27T06:21:33.671Z,6.80
2022-08-27T06:22:35.491Z,7.05
2022-08-27T06:23:37.954Z,6.82
2022-08-27T06:24:42.074Z,7.55
2022-08-27T06:25:43.979Z,7.03
2022-08-27T06:26:45.871Z,7.00
2022-08-27T06:27:47.656Z,6.45
2022-08-27T06:28:50.530Z,6.75
2022-08-27T06:29:52.313Z,7.47
2022-08-27T06:30:54.120Z,6.95
2022-08-27T06:31:56.603Z,6.95
2022-08-27T06:32:58.373Z,6.70
2022-08-27T06:34:07.277Z,7.85
2022-08-27T06:35:09.724Z,7.85
2022-08-27T06:36:14.526Z,7.43
2022-08-27T06:37:16.361Z,7.70
2022-08-27T06:38:18.143Z,7.32
2022-08-27T06:39:19.999Z,7.53
2022-08-27T06:40:23.428Z,7.28
2022-08-27T06:41:27.069Z,7.55
2022-08-27T06:42:28.849Z,7.93
2022-08-27T06:43:33.032Z,8.90
2022-08-27T06:44:34.880Z,8.05
2022-08-27T06:45:40.172Z,7.68
2022-08-27T06:46:43.150Z,7.35
2022-08-27T06:47:45.382Z,7.28
2022-08-27T06:48:48.077Z,7.47
2022-08-27T06:49:49.844Z,7.13
2022-08-27T06:50:51.653Z,7.57
2022-08-27T06:51:53.805Z,7.30
2022-08-27T06:52:55.656Z,6.75
2022-08-27T06:53:59.605Z,7.10
2022-08-27T06:55:01.516Z,6.93
2022-08-27T06:56:03.564Z,7.15
2022-08-27T06:57:05.403Z,7.25
2022-08-27T06:58:07.569Z,6.15
2022-08-27T06:59:12.412Z,5.82
2022-08-27T07:00:14.449Z,5.82
2022-08-27T07:01:22.902Z,6.18
2022-08-27T07:02:24.839Z,6.63
2022-08-27T07:03:26.687Z,6.68
2022-08-27T07:04:32.773Z,6.38
2022-08-27T07:05:37.172Z,5.47
2022-08-27T07:06:39.942Z,5.30
2022-08-27T07:07:46.712Z,5.90
2022-08-27T07:08:53.169Z,5.93
2022-08-27T07:09:55.600Z,6.22
2022-08-27T07:10:58.017Z,6.00
2022-08-27T07:12:00.952Z,5.68
2022-08-27T07:13:03.362Z,6.22
2022-08-27T07:14:06.492Z,5.88
2022-08-27T07:15:08.810Z,5.80
2022-08-27T07:16:14.253Z,6.28
2022-08-27T07:17:17.552Z,5.25
2022-08-27T07:18:19.327Z,5.28
2022-08-27T07:19:30.521Z,5.50
2022-08-27T07:20:33.264Z,5.55
2022-08-27T07:21:36.333Z,5.75
2022-08-27T07:22:42.944Z,5.25
2022-08-27T07:23:44.744Z,5.97
2022-08-27T07:24:46.816Z,5.85
2022-08-27T07:25:48.903Z,5.75
2022-08-27T07:26:50.711Z,8.07
2022-08-27T07:27:52.868Z,8.98
2022-08-27T07:28:54.664Z,9.13
2022-08-27T07:29:56.446Z,9.20
2022-08-27T07:30:58.301Z,7.97
2022-08-27T07:32:00.164Z,7.30
2022-08-27T07:33:01.989Z,7.47
2022-08-27T07:34:04.941Z,7.35
2022-08-27T07:35:09.890Z,7.57
2022-08-27T07:36:12.198Z,7.15
2022-08-27T07:37:15.169Z,6.88
2022-08-27T07:38:16.955Z,6.80
2022-08-27T07:39:18.847Z,6.75
2022-08-27T07:40:20.680Z,5.97
2022-08-27T07:41:22.467Z,6.65
2022-08-27T07:42:48.390Z,5.75
2022-08-27T07:45:10.818Z,6.72
2022-08-27T07:46:12.662Z,5.97
2022-08-27T07:47:14.571Z,5.95
2022-08-27T07:48:16.639Z,6.10
2022-08-27T07:49:19.310Z,5.78
2022-08-27T07:50:23.795Z,5.90
2022-08-27T07:51:27.426Z,5.97
2022-08-27T07:52:29.268Z,5.95
2022-08-27T07:53:34.125Z,5.20
2022-08-27T07:54:35.963Z,5.85
2022-08-27T07:55:39.006Z,5.80
2022-08-27T07:56:40.911Z,5.50
2022-08-27T07:57:42.706Z,5.18
2022-08-27T07:58:45.355Z,5.43
2022-08-27T07:59:48.533Z,5.30
2022-08-27T08:00:50.311Z,5.38
2022-08-27T08:01:52.509Z,5.70
2022-08-27T08:02:54.556Z,4.60
2022-08-27T08:03:56.831Z,5.40
2022-08-27T08:04:58.755Z,5.55
2022-08-27T08:06:10.447Z,5.38
2022-08-27T08:07:12.513Z,5.13
2022-08-27T08:08:14.485Z,4.60
2022-08-27T08:09:16.384Z,5.10
2022-08-27T08:10:22.705Z,4.70
2022-08-27T08:11:24.557Z,5.13
2022-08-27T08:12:27.216Z,4.68
2022-08-27T08:13:29.096Z,4.93
2022-08-27T08:14:32.398Z,4.80
2022-08-27T08:15:35.042Z,4.85
2022-08-27T08:16:36.963Z,4.57
2022-08-27T08:17:38.913Z,4.65
2022-08-27T08:18:40.937Z,4.82
2022-08-27T08:19:53.490Z,5.13
2022-08-27T08:21:11.456Z,4.95
2022-08-27T08:22:13.244Z,5.28
2022-08-27T08:23:15.118Z,4.85
2022-08-27T08:24:18.495Z,4.32
2022-08-27T08:25:21.321Z,4.72
2022-08-27T08:26:24.081Z,4.50
2022-08-27T08:27:26.033Z,4.75
2022-08-27T08:28:30.341Z,4.20
2022-08-27T08:29:32.138Z,4.78
2022-08-27T08:30:35.493Z,5.22
2022-08-27T08:31:37.481Z,4.68
2022-08-27T08:32:39.535Z,5.38
2022-08-27T08:33:41.386Z,5.03
2022-08-27T08:34:44.328Z,4.53
2022-08-27T08:35:46.378Z,4.85
2022-08-27T08:36:54.501Z,4.07
2022-08-27T08:37:56.671Z,4.68
2022-08-27T08:38:59.154Z,4.50
2022-08-27T08:40:01.001Z,4.63
2022-08-27T08:41:04.182Z,4.60
2022-08-27T08:42:08.110Z,4.10
2022-08-27T08:43:26.925Z,4.43
2022-08-27T08:44:31.234Z,4.03
2022-08-27T08:45:36.536Z,4.45
2022-08-27T08:46:46.813Z,4.40
2022-08-27T08:47:57.278Z,4.28
2022-08-27T08:49:04.003Z,4.60
2022-08-27T08:50:11.218Z,3.78
2022-08-27T08:51:22.071Z,4.13
2022-08-27T08:52:43.783Z,3.85
2022-08-27T08:53:55.694Z,3.75
2022-08-27T08:55:07.049Z,3.53
2022-08-27T08:56:21.371Z,3.60
2022-08-27T08:57:31.082Z,3.38
2022-08-27T08:59:06.161Z,3.50
2022-08-27T09:00:14.329Z,3.60
2022-08-27T09:01:20.934Z,3.40
2022-08-27T09:02:23.021Z,3.63
2022-08-27T09:03:29.901Z,3.53
2022-08-27T09:04:31.797Z,3.50
2022-08-27T09:05:37.579Z,3.50
2022-08-27T09:06:56.433Z,3.25
2022-08-27T09:08:28.638Z,3.40
2022-08-27T09:09:31.931Z,3.22
2022-08-27T09:10:52.992Z,3.25
2022-08-27T09:12:15.536Z,3.58
2022-08-27T09:13:32.881Z,3.08
2022-08-27T09:14:41.641Z,3.30
2022-08-27T09:15:49.260Z,3.30
2022-08-27T09:16:51.184Z,2.95
2022-08-27T09:18:14.020Z,3.03
2022-08-27T09:19:16.511Z,3.20
2022-08-27T09:20:26.221Z,3.58
2022-08-27T09:21:51.743Z,2.88
2022-08-27T09:23:06.834Z,2.80
2022-08-27T09:24:18.444Z,3.00
2022-08-27T09:25:26.334Z,3.22
2022-08-27T09:26:33.591Z,3.00
2022-08-27T09:27:42.970Z,3.20
2022-08-27T09:29:03.419Z,3.33
2022-08-27T09:30:20.890Z,3.15
2022-08-27T09:31:23.226Z,2.75
2022-08-27T09:32:32.655Z,3.40
2022-08-27T09:33:44.398Z,3.13
2022-08-27T09:35:03.287Z,3.03
2022-08-27T09:36:09.984Z,2.70
2022-08-27T09:37:23.302Z,3.20
2022-08-27T09:38:36.944Z,2.80
2022-08-27T09:40:22.597Z,3.15
2022-08-27T09:41:33.320Z,3.13
2022-08-27T09:42:41.610Z,2.88
2022-08-27T09:44:07.357Z,2.80
2022-08-27T09:45:12.800Z,2.80
2022-08-27T09:46:21.600Z,2.90
2022-08-27T09:47:26.952Z,3.22
2022-08-27T09:48:31.525Z,2.97
2022-08-27T09:49:36.854Z,2.95
2022-08-27T09:50:57.072Z,2.60
2022-08-27T09:51:59.260Z,2.78
2022-08-27T09:53:01.548Z,3.10
2022-08-27T09:54:04.506Z,3.00
2022-08-27T09:55:07.258Z,3.05
2022-08-27T09:56:11.268Z,2.88
2022-08-27T09:57:26.339Z,2.83
2022-08-27T09:58:47.745Z,3.00
2022-08-27T09:59:54.850Z,2.88
2022-08-27T10:01:17.188Z,2.90
2022-08-27T10:02:22.332Z,3.20
2022-08-27T10:03:24.161Z,3.20
2022-08-27T10:04:51.533Z,2.83
2022-08-27T10:05:54.756Z,3.35
2022-08-27T10:06:56.641Z,3.25
2022-08-27T10:08:04.853Z,2.92
2022-08-27T10:09:18.947Z,2.80
2022-08-27T10:10:37.501Z,3.22
2022-08-27T10:11:55.238Z,2.85
2022-08-27T10:13:10.095Z,2.92
2022-08-27T10:14:20.386Z,2.90
2022-08-27T10:15:29.790Z,2.67
2022-08-27T10:17:20.701Z,2.90
2022-08-27T10:18:45.014Z,2.92
2022-08-27T10:19:58.502Z,3.10
2022-08-27T10:21:42.195Z,3.10
2022-08-27T10:23:07.842Z,2.80
2022-08-27T10:24:35.507Z,3.72
2022-08-27T10:25:47.283Z,3.08
2022-08-27T10:27:08.494Z,3.25
2022-08-27T10:28:26.696Z,3.10
2022-08-27T10:29:43.213Z,3.20
2022-08-27T10:31:06.383Z,2.97
2022-08-27T10:32:25.651Z,2.80
2022-08-27T10:33:46.814Z,3.08
2022-08-27T10:35:05.572Z,3.80
2022-08-27T10:36:19.504Z,3.20
2022-08-27T10:37:45.960Z,3.60
2022-08-27T10:39:06.683Z,2.65
2022-08-27T10:41:14.049Z,2.83
2022-08-27T10:42:26.508Z,2.78
2022-08-27T10:44:02.062Z,3.25
2022-08-27T10:45:11.402Z,2.53
2022-08-27T10:46:31.751Z,3.03
2022-08-27T10:47:44.658Z,2.67
2022-08-27T10:49:01.484Z,3.45
2022-08-27T10:50:27.616Z,3.35
2022-08-27T10:51:44.009Z,4.57
2022-08-27T10:52:51.696Z,3.20
2022-08-27T10:54:10.569Z,3.25
2022-08-27T10:55:18.349Z,3.20
2022-08-27T10:56:33.358Z,2.88
2022-08-27T10:57:56.820Z,2.85
2022-08-27T10:59:21.703Z,2.90
2022-08-27T11:00:25.430Z,3.20
2022-08-27T11:01:48.409Z,2.55
2022-08-27T11:03:01.344Z,2.92
2022-08-27T11:04:13.443Z,2.92
2022-08-27T11:05:24.794Z,3.25
2022-08-27T11:06:43.158Z,3.35
2022-08-27T11:08:02.114Z,3.00
2022-08-27T11:09:10.598Z,3.45
2022-08-27T11:10:29.398Z,3.10
2022-08-27T11:13:13.619Z,2.53
2022-08-27T11:14:25.387Z,3.13
2022-08-27T11:15:29.107Z,3.72
2022-08-27T11:16:45.423Z,3.35
2022-08-27T11:17:59.851Z,3.00
2022-08-27T11:19:14.097Z,3.13
2022-08-27T11:20:25.188Z,3.47
2022-08-27T11:22:03.025Z,3.10
2022-08-27T11:23:34.273Z,3.33
2022-08-27T11:24:55.665Z,2.85
2022-08-27T11:27:08.191Z,3.40
2022-08-27T11:28:11.929Z,3.03
2022-08-27T11:29:25.002Z,3.20
2022-08-27T11:30:30.228Z,3.00
2022-08-27T11:31:38.538Z,3.38
2022-08-27T11:32:46.630Z,3.60
2022-08-27T11:34:13.615Z,3.38
2022-08-27T11:35:46.893Z,3.55
2022-08-27T11:37:06.034Z,3.20
2022-08-27T11:38:38.526Z,3.03
2022-08-27T11:39:56.781Z,2.90
2022-08-27T11:41:17.123Z,3.30
2022-08-27T11:42:36.318Z,3.08
2022-08-27T11:43:38.369Z,3.17
2022-08-27T11:44:44.841Z,2.97
2022-08-27T11:46:01.852Z,3.20
2022-08-27T11:47:24.624Z,3.10
2022-08-27T11:48:36.190Z,2.92
2022-08-27T11:49:49.083Z,2.97
2022-08-27T11:51:26.093Z,3.10
2022-08-27T11:52:38.643Z,3.10
2022-08-27T11:53:57.489Z,3.17
2022-08-27T11:55:25.115Z,3.35
2022-08-27T11:56:29.906Z,2.83
2022-08-27T11:57:34.678Z,3.03
2022-08-27T11:58:53.361Z,2.90
2022-08-27T11:59:55.532Z,3.13
2022-08-27T12:01:03.746Z,2.78
2022-08-27T12:02:22.974Z,2.83
2022-08-27T12:03:32.607Z,3.10
2022-08-27T12:04:41.407Z,3.13
2022-08-27T12:05:49.207Z,3.08
2022-08-27T12:07:00.364Z,3.03
2022-08-27T12:08:22.080Z,2.78
2022-08-27T12:09:24.549Z,2.47
2022-08-27T12:10:40.554Z,3.22
2022-08-27T12:11:56.910Z,3.35
2022-08-27T12:13:42.011Z,3.42
2022-08-27T12:14:53.709Z,2.80
2022-08-27T12:16:00.294Z,3.40
2022-08-27T12:17:14.083Z,3.42
2022-08-27T12:18:27.868Z,4.47
2022-08-27T12:20:06.180Z,3.60
2022-08-27T12:21:20.046Z,3.35
2022-08-27T12:23:01.345Z,3.30
2022-08-27T12:24:21.085Z,3.47
2022-08-27T12:25:23.866Z,3.30
2022-08-27T12:26:25.615Z,2.78
2022-08-27T12:27:34.967Z,3.50
2022-08-27T12:28:36.823Z,3.22
2022-08-27T12:29:57.178Z,3.17
2022-08-27T12:30:59.166Z,3.50
2022-08-27T12:32:10.542Z,3.25
2022-08-27T12:33:23.703Z,3.53
2022-08-27T12:34:26.976Z,3.40
2022-08-27T12:35:45.804Z,3.53
2022-08-27T12:36:53.417Z,3.30
2022-08-27T12:38:10.637Z,3.00
2022-08-27T12:39:16.767Z,3.42
2022-08-27T12:40:25.903Z,3.10
2022-08-27T12:41:44.059Z,3.30
2022-08-27T12:42:46.753Z,3.40
2022-08-27T12:43:48.557Z,3.72
2022-08-27T12:44:58.200Z,3.25
2022-08-27T12:46:19.730Z,3.13
2022-08-27T12:47:21.773Z,3.05
2022-08-27T12:48:34.298Z,3.47
2022-08-27T12:49:59.496Z,3.40
2022-08-27T12:51:07.141Z,3.65
2022-08-27T12:52:38.207Z,3.45
2022-08-27T12:54:54.049Z,3.25
2022-08-27T12:57:54.144Z,3.25
2022-08-27T12:59:06.125Z,3.20
2022-08-27T13:00:19.302Z,3.17
2022-08-27T13:01:36.816Z,2.80
2022-08-27T13:03:18.631Z,2.53
2022-08-27T13:04:30.644Z,2.95
2022-08-27T13:05:48.192Z,2.97
2022-08-27T13:06:50.894Z,3.60
2022-08-27T13:07:55.519Z,3.05
2022-08-27T13:09:00.239Z,3.63
2022-08-27T13:10:15.428Z,3.30
2022-08-27T13:11:23.754Z,3.28
2022-08-27T13:12:26.029Z,3.10
2022-08-27T13:13:27.877Z,3.70
2022-08-27T13:14:38.118Z,3.67
2022-08-27T13:15:52.462Z,3.67
2022-08-27T13:16:57.781Z,3.20
2022-08-27T13:18:02.549Z,3.45
2022-08-27T13:19:07.225Z,3.38
2022-08-27T13:20:27.837Z,3.50
2022-08-27T13:21:33.142Z,2.92
2022-08-27T13:22:41.130Z,3.28
2022-08-27T13:23:57.192Z,3.28
2022-08-27T13:25:03.039Z,3.60
2022-08-27T13:26:10.734Z,3.45
2022-08-27T13:27:13.303Z,3.38
2022-08-27T13:28:17.246Z,3.38
2022-08-27T13:29:19.806Z,3.13
2022-08-27T13:30:35.228Z,3.33
2022-08-27T13:31:39.115Z,3.10
2022-08-27T13:32:41.365Z,3.40
2022-08-27T13:33:44.181Z,3.58
2022-08-27T13:34:46.208Z,3.38
2022-08-27T13:35:48.195Z,3.10
2022-08-27T13:36:56.223Z,3.08
2022-08-27T13:37:59.047Z,3.17
2022-08-27T13:39:06.142Z,3.50
2022-08-27T13:40:08.853Z,3.25
2022-08-27T13:41:20.458Z,3.40
2022-08-27T13:42:24.699Z,3.40
2022-08-27T13:43:40.058Z,3.47
2022-08-27T13:44:48.029Z,3.50
2022-08-27T13:45:52.698Z,4.20
2022-08-27T13:47:02.219Z,3.90
2022-08-27T13:48:05.859Z,3.60
2022-08-27T13:49:17.873Z,3.47
2022-08-27T13:50:29.235Z,3.50
2022-08-27T13:51:34.649Z,3.25
2022-08-27T13:53:12.624Z,3.30
2022-08-27T13:54:17.958Z,3.67
2022-08-27T13:55:19.808Z,3.33
2022-08-27T13:56:31.880Z,3.65
2022-08-27T13:57:44.606Z,3.38
2022-08-27T13:58:46.932Z,4.05
2022-08-27T13:59:48.740Z,2.90
2022-08-27T14:00:50.633Z,3.70
2022-08-27T14:02:10.585Z,3.58
2022-08-27T14:03:32.932Z,3.17
2022-08-27T14:04:41.141Z,3.70
2022-08-27T14:05:48.399Z,3.75
2022-08-27T14:06:51.206Z,3.47
2022-08-27T14:08:02.346Z,3.40
2022-08-27T14:09:16.442Z,3.35
2022-08-27T14:10:18.185Z,3.60
2022-08-27T14:11:25.976Z,3.50
2022-08-27T14:12:34.732Z,3.85
2022-08-27T14:13:46.942Z,3.70
2022-08-27T14:14:54.575Z,3.58
2022-08-27T14:16:00.231Z,3.25
2022-08-27T14:17:03.549Z,3.50
2022-08-27T14:18:08.647Z,3.78
2022-08-27T14:19:26.253Z,3.30
2022-08-27T14:20:28.906Z,3.50
2022-08-27T14:21:32.157Z,3.33
2022-08-27T14:22:34.607Z,3.30
2022-08-27T14:23:36.394Z,3.05
2022-08-27T14:24:38.171Z,3.35
2022-08-27T14:25:41.429Z,3.42
2022-08-27T14:26:43.343Z,3.60
2022-08-27T14:27:54.459Z,3.17
2022-08-27T14:28:57.194Z,3.40
2022-08-27T14:29:59.030Z,3.15
2022-08-27T14:31:00.859Z,3.50
2022-08-27T14:32:02.895Z,3.45
2022-08-27T14:33:04.693Z,3.40
2022-08-27T14:34:06.471Z,3.65
2022-08-27T14:35:10.948Z,3.22
2022-08-27T14:36:12.942Z,3.28
2022-08-27T14:37:15.510Z,3.50
2022-08-27T14:38:20.907Z,3.47
2022-08-27T14:39:26.034Z,3.42
2022-08-27T14:40:28.948Z,3.55
2022-08-27T14:41:30.846Z,3.33
2022-08-27T14:42:35.059Z,3.20
2022-08-27T14:43:38.543Z,3.58
2022-08-27T14:44:40.720Z,3.60
2022-08-27T14:45:44.128Z,3.10
2022-08-27T14:46:46.063Z,3.65
2022-08-27T14:47:49.568Z,3.60
2022-08-27T14:48:52.301Z,3.05
2022-08-27T14:49:54.184Z,3.60
2022-08-27T14:50:57.146Z,3.22
2022-08-27T14:51:59.098Z,3.70
2022-08-27T14:53:00.959Z,2.97
2022-08-27T14:54:02.769Z,3.30
2022-08-27T14:55:08.807Z,2.95
2022-08-27T14:56:12.257Z,3.75
2022-08-27T14:57:14.017Z,3.85
2022-08-27T14:58:15.783Z,3.13